Time,TemperatureF,DewpointF,PressureIn,WindDirection,WindDirectionDegrees,WindSpeedMPH,WindSpeedGustMPH,Humidity,HourlyPrecipIn,Conditions,Clouds,dailyrainin,SoftwareType,DateUTC
2013-04-05 00:02:00,42.0,30.0,30.01,NNW,336,3.0,3.0,63,0.00,,,0.00,,2013-04-05 04:02:00,
2013-04-05 00:12:00,42.0,30.0,30.01,NNW,336,3.0,3.0,63,0.00,,,0.00,,2013-04-05 04:12:00,
2013-04-05 00:22:00,42.0,30.0,30.01,NNW,336,3.0,3.0,63,0.00,,,0.00,,2013-04-05 04:22:00,
2013-04-05 00:32:00,40.0,29.0,30.01,NNW,346,2.0,3.0,65,0.00,,,0.00,,2013-04-05 04:32:00,
2013-04-05 00:42:00,40.0,29.0,30.01,NNW,346,2.0,3.0,65,0.00,,,0.00,,2013-04-05 04:42:00,
2013-04-05 00:52:00,40.0,29.0,30.01,NNW,346,2.0,3.0,65,0.00,,,0.00,,2013-04-05 04:52:00,
2013-04-05 01:02:00,40.0,28.0,30.01,NW,326,2.0,3.0,61,0.00,,,0.00,,2013-04-05 05:02:00,
2013-04-05 01:12:00,40.0,28.0,30.01,NW,326,2.0,3.0,61,0.00,,,0.00,,2013-04-05 05:12:00,
2013-04-05 01:22:00,40.0,28.0,30.01,NNW,328,0.0,3.0,61,0.00,,,0.00,,2013-04-05 05:22:00,
2013-04-05 01:32:00,39.0,27.0,30.01,NNW,340,3.0,3.0,61,0.00,,,0.00,,2013-04-05 05:32:00,
2013-04-05 01:42:00,39.0,27.0,30.01,NNW,340,3.0,3.0,61,0.00,,,0.00,,2013-04-05 05:42:00,
2013-04-05 01:52:00,39.0,27.0,30.01,North,360,4.0,4.0,61,0.00,,,0.00,,2013-04-05 05:52:00,
2013-04-05 02:02:00,39.0,27.0,30.02,North,5,0.0,3.0,61,0.00,,,0.00,,2013-04-05 06:02:00,
2013-04-05 02:12:00,39.0,27.0,30.02,North,5,0.0,3.0,61,0.00,,,0.00,,2013-04-05 06:12:00,
2013-04-05 02:22:00,38.0,26.0,30.02,North,11,0.0,3.0,61,0.00,,,0.00,,2013-04-05 06:22:00,
2013-04-05 02:32:00,38.0,26.0,30.03,NNE,26,1.0,2.0,61,0.00,,,0.00,,2013-04-05 06:32:00,
2013-04-05 02:42:00,38.0,26.0,30.03,NNE,26,1.0,2.0,61,0.00,,,0.00,,2013-04-05 06:42:00,
2013-04-05 02:52:00,37.0,25.0,30.03,NE,40,0.0,3.0,62,0.00,,,0.00,,2013-04-05 06:52:00,
2013-04-05 03:02:00,37.0,25.0,30.03,NE,40,0.0,3.0,62,0.00,,,0.00,,2013-04-05 07:02:00,
2013-04-05 03:12:00,37.0,25.0,30.03,NE,40,0.0,3.0,62,0.00,,,0.00,,2013-04-05 07:12:00,
2013-04-05 03:22:00,37.0,25.0,30.03,NE,40,0.0,3.0,62,0.00,,,0.00,,2013-04-05 07:22:00,
2013-04-05 03:32:00,36.0,25.0,30.05,NE,35,0.0,0.0,64,0.00,,,0.00,,2013-04-05 07:32:00,
2013-04-05 03:42:00,36.0,25.0,30.05,NE,35,0.0,0.0,64,0.00,,,0.00,,2013-04-05 07:42:00,
2013-04-05 03:53:00,36.0,25.0,30.05,NE,35,0.0,0.0,64,0.00,,,0.00,,2013-04-05 07:53:00,
2013-04-05 04:02:00,36.0,26.0,30.06,NE,51,3.0,7.0,67,0.00,,,0.00,,2013-04-05 08:02:00,
2013-04-05 04:12:00,36.0,26.0,30.06,NE,51,3.0,7.0,67,0.00,,,0.00,,2013-04-05 08:12:00,
2013-04-05 04:22:00,36.0,26.0,30.06,ENE,69,3.0,3.0,67,0.00,,,0.00,,2013-04-05 08:22:00,
2013-04-05 04:32:00,35.0,26.0,30.07,NE,43,0.0,2.0,68,0.00,,,0.00,,2013-04-05 08:32:00,
2013-04-05 04:42:00,35.0,26.0,30.07,NE,43,0.0,2.0,68,0.00,,,0.00,,2013-04-05 08:42:00,
2013-04-05 04:52:00,35.0,26.0,30.07,NE,43,3.0,3.0,69,0.00,,,0.00,,2013-04-05 08:52:00,
2013-04-05 05:02:00,35.0,26.0,30.07,NE,51,1.0,3.0,69,0.00,,,0.00,,2013-04-05 09:02:00,
2013-04-05 05:12:00,35.0,26.0,30.07,NE,51,1.0,3.0,69,0.00,,,0.00,,2013-04-05 09:12:00,
2013-04-05 05:22:00,34.0,25.0,30.08,NE,51,0.0,0.0,70,0.00,,,0.00,,2013-04-05 09:22:00,
2013-04-05 05:33:00,32.0,24.0,30.09,NE,51,0.0,0.0,71,0.00,,,0.00,,2013-04-05 09:33:00,
2013-04-05 05:42:00,32.0,24.0,30.09,NE,51,0.0,0.0,71,0.00,,,0.00,,2013-04-05 09:42:00,
2013-04-05 05:52:00,32.0,24.0,30.09,NE,51,0.0,0.0,73,0.00,,,0.00,,2013-04-05 09:52:00,
2013-04-05 06:03:00,30.0,23.0,30.10,NE,51,0.0,0.0,76,0.00,,,0.00,,2013-04-05 10:03:00,
2013-04-05 06:12:00,30.0,23.0,30.10,NE,51,0.0,0.0,76,0.00,,,0.00,,2013-04-05 10:12:00,
2013-04-05 06:23:00,30.0,24.0,30.10,NE,51,0.0,0.0,78,0.00,,,0.00,,2013-04-05 10:23:00,
2013-04-05 06:33:00,30.0,24.0,30.11,NE,51,0.0,0.0,78,0.00,,,0.00,,2013-04-05 10:33:00,
2013-04-05 06:42:00,30.0,24.0,30.11,NE,51,0.0,0.0,78,0.00,,,0.00,,2013-04-05 10:42:00,
2013-04-05 06:52:00,30.0,24.0,30.11,NE,51,0.0,0.0,78,0.00,,,0.00,,2013-04-05 10:52:00,
2013-04-05 07:02:00,29.0,24.0,30.12,NE,51,0.0,0.0,80,0.00,,,0.00,,2013-04-05 11:02:00,
2013-04-05 07:12:00,29.0,24.0,30.12,NE,51,0.0,0.0,80,0.00,,,0.00,,2013-04-05 11:12:00,
2013-04-05 07:22:00,29.0,24.0,30.13,NE,51,0.0,0.0,81,0.00,,,0.00,,2013-04-05 11:22:00,
2013-04-05 07:33:00,29.0,25.0,30.14,NE,51,0.0,1.0,84,0.00,,,0.00,,2013-04-05 11:33:00,
2013-04-05 07:42:00,29.0,25.0,30.14,NE,51,0.0,1.0,84,0.00,,,0.00,,2013-04-05 11:42:00,
2013-04-05 07:52:00,29.0,25.0,30.14,NE,51,0.0,0.0,83,0.00,,,0.00,,2013-04-05 11:52:00,
2013-04-05 08:02:00,29.0,25.0,30.15,NE,51,0.0,0.0,83,0.00,,,0.00,,2013-04-05 12:02:00,
2013-04-05 08:12:00,29.0,25.0,30.15,NE,51,0.0,0.0,83,0.00,,,0.00,,2013-04-05 12:12:00,
2013-04-05 08:22:00,29.0,25.0,30.15,NE,51,0.0,0.0,83,0.00,,,0.00,,2013-04-05 12:22:00,
2013-04-05 08:32:00,29.0,25.0,30.17,NE,51,1.0,1.0,84,0.00,,,0.00,,2013-04-05 12:32:00,
2013-04-05 08:42:00,29.0,25.0,30.17,NE,51,1.0,1.0,84,0.00,,,0.00,,2013-04-05 12:42:00,
2013-04-05 08:52:00,29.0,25.0,30.17,NE,51,1.0,1.0,84,0.00,,,0.00,,2013-04-05 12:52:00,
2013-04-05 09:02:00,33.0,27.0,30.19,NE,51,0.0,0.0,77,0.00,,,0.00,,2013-04-05 13:02:00,
2013-04-05 09:12:00,33.0,27.0,30.19,NE,51,0.0,0.0,77,0.00,,,0.00,,2013-04-05 13:12:00,
2013-04-05 09:23:00,33.0,27.0,30.19,NE,51,0.0,0.0,77,0.00,,,0.00,,2013-04-05 13:23:00,
2013-04-05 09:32:00,34.0,25.0,30.19,ENE,67,2.0,3.0,68,0.00,,,0.00,,2013-04-05 13:32:00,
2013-04-05 09:42:00,34.0,25.0,30.19,ENE,67,2.0,3.0,68,0.00,,,0.00,,2013-04-05 13:42:00,
2013-04-05 09:52:00,34.0,25.0,30.19,ENE,67,2.0,3.0,68,0.00,,,0.00,,2013-04-05 13:52:00,
2013-04-05 10:03:00,35.0,26.0,30.20,ENE,61,3.0,4.0,68,0.00,,,0.00,,2013-04-05 14:03:00,
2013-04-05 10:12:00,35.0,26.0,30.20,ENE,61,3.0,4.0,68,0.00,,,0.00,,2013-04-05 14:12:00,
2013-04-05 10:23:00,36.0,26.0,30.20,East,91,3.0,6.0,67,0.00,,,0.00,,2013-04-05 14:23:00,
2013-04-05 10:36:00,36.0,26.0,30.20,East,91,3.0,6.0,67,0.00,,,0.00,,2013-04-05 14:36:00,
2013-04-05 10:42:00,36.0,26.0,30.20,East,91,3.0,6.0,67,0.00,,,0.00,,2013-04-05 14:42:00,
2013-04-05 10:52:00,37.0,25.0,30.21,ENE,67,3.0,6.0,62,0.00,,,0.00,,2013-04-05 14:52:00,
2013-04-05 11:02:00,37.0,24.0,30.21,ENE,65,4.0,10.0,60,0.00,,,0.00,,2013-04-05 15:02:00,
2013-04-05 11:12:00,37.0,24.0,30.21,ENE,65,4.0,10.0,60,0.00,,,0.00,,2013-04-05 15:12:00,
2013-04-05 11:23:00,37.0,24.0,30.21,ENE,63,2.0,3.0,59,0.00,,,0.00,,2013-04-05 15:23:00,
2013-04-05 11:33:00,38.0,25.0,30.22,NE,38,2.0,2.0,58,0.00,,,0.00,,2013-04-05 15:33:00,
2013-04-05 11:42:00,38.0,25.0,30.22,NE,38,2.0,2.0,58,0.00,,,0.00,,2013-04-05 15:42:00,
2013-04-05 11:53:00,38.0,24.0,30.22,ENE,68,3.0,8.0,56,0.00,,,0.00,,2013-04-05 15:53:00,
2013-04-05 12:02:00,38.0,24.0,30.22,NNE,28,3.0,4.0,56,0.00,,,0.00,,2013-04-05 16:02:00,
2013-04-05 12:13:00,38.0,24.0,30.22,NNE,28,3.0,4.0,56,0.00,,,0.00,,2013-04-05 16:13:00,
2013-04-05 12:23:00,39.0,23.0,30.23,East,82,4.0,7.0,52,0.00,,,0.00,,2013-04-05 16:23:00,
2013-04-05 12:33:00,40.0,23.0,30.23,NE,52,3.0,7.0,50,0.00,,,0.00,,2013-04-05 16:33:00,
2013-04-05 12:42:00,40.0,23.0,30.23,NE,52,3.0,7.0,50,0.00,,,0.00,,2013-04-05 16:42:00,
2013-04-05 12:52:00,40.0,23.0,30.23,NE,52,3.0,7.0,50,0.00,,,0.00,,2013-04-05 16:52:00,
2013-04-05 13:03:00,42.0,23.0,30.22,ENE,64,3.0,6.0,47,0.00,,,0.00,,2013-04-05 17:03:00,
2013-04-05 13:13:00,42.0,23.0,30.22,ENE,64,3.0,6.0,47,0.00,,,0.00,,2013-04-05 17:13:00,
2013-04-05 13:23:00,42.0,23.0,30.22,NE,38,2.0,5.0,47,0.00,,,0.00,,2013-04-05 17:23:00,
2013-04-05 13:32:00,43.0,22.0,30.21,ENE,59,0.0,5.0,43,0.00,,,0.00,,2013-04-05 17:32:00,
2013-04-05 13:45:00,43.0,22.0,30.21,ENE,59,0.0,5.0,43,0.00,,,0.00,,2013-04-05 17:45:00,
2013-04-05 13:52:00,43.0,22.0,30.21,ENE,59,0.0,5.0,43,0.00,,,0.00,,2013-04-05 17:52:00,
2013-04-05 14:02:00,43.0,22.0,30.20,SE,134,0.0,3.0,43,0.00,,,0.00,,2013-04-05 18:02:00,
2013-04-05 14:12:00,43.0,22.0,30.20,SE,134,0.0,3.0,43,0.00,,,0.00,,2013-04-05 18:12:00,
2013-04-05 14:22:00,44.0,23.0,30.20,NNE,33,3.0,6.0,43,0.00,,,0.00,,2013-04-05 18:22:00,
2013-04-05 14:33:00,45.0,22.0,30.19,NNE,25,2.0,3.0,40,0.00,,,0.00,,2013-04-05 18:33:00,
2013-04-05 14:42:00,45.0,22.0,30.19,NNE,25,2.0,3.0,40,0.00,,,0.00,,2013-04-05 18:42:00,
2013-04-05 14:52:00,45.0,22.0,30.19,NNE,25,2.0,3.0,40,0.00,,,0.00,,2013-04-05 18:52:00,
2013-04-05 15:02:00,45.0,22.0,30.18,NE,38,0.0,6.0,40,0.00,,,0.00,,2013-04-05 19:02:00,
2013-04-05 15:13:00,45.0,22.0,30.18,NE,38,0.0,6.0,40,0.00,,,0.00,,2013-04-05 19:13:00,
2013-04-05 15:23:00,44.0,21.0,30.18,NNE,18,1.0,3.0,40,0.00,,,0.00,,2013-04-05 19:23:00,
2013-04-05 15:33:00,44.0,21.0,30.18,NNE,18,1.0,3.0,40,0.00,,,0.00,,2013-04-05 19:33:00,
2013-04-05 15:42:00,44.0,21.0,30.18,NNE,18,1.0,3.0,40,0.00,,,0.00,,2013-04-05 19:42:00,
2013-04-05 15:52:00,44.0,21.0,30.18,NNE,18,1.0,3.0,40,0.00,,,0.00,,2013-04-05 19:52:00,
2013-04-05 16:22:00,46.0,21.0,30.16,NE,51,1.0,3.0,36,0.00,,,0.00,,2013-04-05 20:22:00,
2013-04-05 16:32:00,46.0,21.0,30.16,NE,51,1.0,3.0,36,0.00,,,0.00,,2013-04-05 20:32:00,
2013-04-05 16:42:00,46.0,21.0,30.16,NE,51,1.0,3.0,36,0.00,,,0.00,,2013-04-05 20:42:00,
2013-04-05 16:52:00,46.0,22.0,30.16,WSW,254,1.0,4.0,39,0.00,,,0.00,,2013-04-05 20:52:00,
2013-04-05 17:02:00,45.0,22.0,30.16,SW,236,0.0,3.0,39,0.00,,,0.00,,2013-04-05 21:02:00,
2013-04-05 17:12:00,45.0,22.0,30.16,SW,236,0.0,3.0,39,0.00,,,0.00,,2013-04-05 21:12:00,
2013-04-05 17:23:00,45.0,22.0,30.16,SW,236,0.0,3.0,39,0.00,,,0.00,,2013-04-05 21:23:00,
2013-04-05 17:33:00,46.0,22.0,30.15,SE,141,0.0,5.0,38,0.00,,,0.00,,2013-04-05 21:33:00,
2013-04-05 17:43:00,46.0,22.0,30.15,SE,141,0.0,5.0,38,0.00,,,0.00,,2013-04-05 21:43:00,
2013-04-05 17:55:00,46.0,22.0,30.15,NE,40,1.0,3.0,39,0.00,,,0.00,,2013-04-05 21:55:00,
2013-04-05 18:03:00,46.0,23.0,30.15,ENE,76,2.0,3.0,40,0.00,,,0.00,,2013-04-05 22:03:00,
2013-04-05 18:13:00,46.0,23.0,30.15,ENE,76,2.0,3.0,40,0.00,,,0.00,,2013-04-05 22:13:00,
2013-04-05 18:23:00,46.0,23.0,30.15,ENE,71,2.0,4.0,40,0.00,,,0.00,,2013-04-05 22:23:00,
2013-04-05 18:33:00,45.0,23.0,30.15,SE,132,2.0,7.0,41,0.00,,,0.00,,2013-04-05 22:33:00,
2013-04-05 18:43:00,45.0,23.0,30.15,SE,132,2.0,7.0,41,0.00,,,0.00,,2013-04-05 22:43:00,
2013-04-05 18:52:00,44.0,23.0,30.15,East,101,4.0,5.0,44,0.00,,,0.00,,2013-04-05 22:52:00,
2013-04-05 19:02:00,44.0,23.0,30.15,East,101,4.0,5.0,44,0.00,,,0.00,,2013-04-05 23:02:00,
2013-04-05 19:12:00,44.0,23.0,30.15,East,101,4.0,5.0,44,0.00,,,0.00,,2013-04-05 23:12:00,
2013-04-05 19:22:00,41.0,22.0,30.16,ENE,69,3.0,10.0,46,0.00,,,0.00,,2013-04-05 23:22:00,
2013-04-05 19:32:00,40.0,22.0,30.17,ESE,103,3.0,10.0,48,0.00,,,0.00,,2013-04-05 23:32:00,
2013-04-05 19:42:00,40.0,22.0,30.17,ESE,103,3.0,10.0,48,0.00,,,0.00,,2013-04-05 23:42:00,
2013-04-05 19:52:00,38.0,21.0,30.17,SE,128,0.0,8.0,50,0.00,,,0.00,,2013-04-05 23:52:00,
2013-04-05 20:02:00,38.0,22.0,30.17,ESE,102,6.0,9.0,52,0.00,,,0.00,,2013-04-06 00:02:00,
2013-04-05 20:12:00,38.0,22.0,30.17,ESE,102,6.0,9.0,52,0.00,,,0.00,,2013-04-06 00:12:00,
2013-04-05 20:22:00,36.0,21.0,30.16,East,100,5.0,9.0,54,0.00,,,0.00,,2013-04-06 00:22:00,
2013-04-05 20:32:00,36.0,21.0,30.16,East,92,3.0,8.0,55,0.00,,,0.00,,2013-04-06 00:32:00,
2013-04-05 20:42:00,36.0,21.0,30.16,East,92,3.0,8.0,55,0.00,,,0.00,,2013-04-06 00:42:00,
2013-04-05 20:52:00,36.0,22.0,30.16,East,88,0.0,5.0,57,0.00,,,0.00,,2013-04-06 00:52:00,
2013-04-05 21:02:00,35.0,22.0,30.16,ENE,59,3.0,6.0,58,0.00,,,0.00,,2013-04-06 01:02:00,
2013-04-05 21:12:00,35.0,22.0,30.16,ENE,75,1.0,3.0,59,0.00,,,0.00,,2013-04-06 01:12:00,
2013-04-05 21:22:00,35.0,22.0,30.16,ENE,75,1.0,3.0,59,0.00,,,0.00,,2013-04-06 01:22:00,
2013-04-05 21:32:00,34.0,21.0,30.16,ESE,108,3.0,8.0,58,0.00,,,0.00,,2013-04-06 01:32:00,
2013-04-05 21:42:00,34.0,21.0,30.16,ESE,108,3.0,8.0,58,0.00,,,0.00,,2013-04-06 01:42:00,
2013-04-05 21:53:00,34.0,21.0,30.16,ENE,74,3.0,7.0,59,0.00,,,0.00,,2013-04-06 01:53:00,
2013-04-05 22:02:00,34.0,21.0,30.16,ESE,104,4.0,9.0,59,0.00,,,0.00,,2013-04-06 02:02:00,
2013-04-05 22:12:00,34.0,21.0,30.16,ESE,104,4.0,9.0,59,0.00,,,0.00,,2013-04-06 02:12:00,
2013-04-05 22:22:00,34.0,21.0,30.16,East,101,6.0,7.0,59,0.00,,,0.00,,2013-04-06 02:22:00,
2013-04-05 22:32:00,34.0,21.0,30.16,East,87,6.0,11.0,59,0.00,,,0.00,,2013-04-06 02:32:00,
2013-04-05 22:42:00,34.0,21.0,30.16,East,87,6.0,11.0,59,0.00,,,0.00,,2013-04-06 02:42:00,
2013-04-05 22:52:00,34.0,22.0,30.16,East,92,2.0,7.0,60,0.00,,,0.00,,2013-04-06 02:52:00,
2013-04-05 23:02:00,34.0,22.0,30.16,ESE,109,3.0,7.0,61,0.00,,,0.00,,2013-04-06 03:02:00,
2013-04-05 23:12:00,34.0,22.0,30.16,ESE,109,3.0,7.0,61,0.00,,,0.00,,2013-04-06 03:12:00,
2013-04-05 23:22:00,34.0,21.0,30.16,SE,146,3.0,6.0,59,0.00,,,0.00,,2013-04-06 03:22:00,
2013-04-05 23:33:00,34.0,21.0,30.16,SE,146,3.0,6.0,59,0.00,,,0.00,,2013-04-06 03:33:00,
2013-04-05 23:42:00,34.0,21.0,30.16,SE,146,3.0,6.0,59,0.00,,,0.00,,2013-04-06 03:42:00,
2013-04-05 23:54:00,34.0,17.0,30.14,ENE,76,2.0,4.0,50,0.00,,,0.00,,2013-04-06 03:54:00,